Time;durP1;ratioP1;P1;durP2;ratioP2;P2;SDS_P1;SDS_P2;PMS_P1;PMS_P2;Temp;Humidity;BMP_temperature;BMP_pressure;BME280_temperature;BME280_humidity;BME280_pressure;Samples;Min_cycle;Max_cycle;Signal;HPM_P1;HPM_P2
2021/10/05 00:01:46;;;;;;;27.88;18.85;;;11.90;57.20;;;;;;5070481;28;20075;-69
2021/10/05 00:04:15;;;;;;;27.90;17.90;;;11.90;57.40;;;;;;5066477;28;20044;-70
2021/10/05 00:06:44;;;;;;;25.40;17.98;;;11.90;57.50;;;;;;5073233;28;20493;-70
2021/10/05 00:09:14;;;;;;;27.13;19.00;;;11.90;57.60;;;;;;5073305;28;20437;-70
2021/10/05 00:11:49;;;;;;;26.63;18.58;;;11.90;57.80;;;;;;5069222;28;20122;-70
2021/10/05 00:14:19;;;;;;;29.65;19.38;;;11.80;57.70;;;;;;5052110;28;20056;-70
2021/10/05 00:16:54;;;;;;;25.77;18.75;;;11.80;58.10;;;;;;5072358;28;20590;-70
2021/10/05 00:19:23;;;;;;;26.50;17.35;;;11.80;58.20;;;;;;5070110;28;20029;-69
2021/10/05 00:21:56;;;;;;;29.50;18.42;;;11.90;58.30;;;;;;5062249;28;20056;-69
2021/10/05 00:24:24;;;;;;;27.10;19.48;;;11.90;58.70;;;;;;5067201;28;20093;-69
2021/10/05 00:26:53;;;;;;;26.50;18.70;;;11.90;58.60;;;;;;5067684;28;20408;-69
2021/10/05 00:29:21;;;;;;;30.45;18.65;;;11.90;58.50;;;;;;5071717;28;20556;-69
2021/10/05 00:31:49;;;;;;;29.23;19.85;;;12.00;58.60;;;;;;5057628;28;20082;-69
2021/10/05 00:34:17;;;;;;;30.63;20.02;;;11.90;58.50;;;;;;5068834;28;20048;-69
2021/10/05 00:36:45;;;;;;;26.95;19.45;;;11.90;58.40;;;;;;5072403;28;20044;-69
2021/10/05 00:39:16;;;;;;;29.73;19.98;;;11.80;58.50;;;;;;5072408;28;20527;-69
2021/10/05 00:41:44;;;;;;;32.17;20.08;;;11.80;59.00;;;;;;5070264;28;20058;-69
2021/10/05 00:44:17;;;;;;;32.40;20.40;;;11.80;59.10;;;;;;5067568;28;20124;-68
2021/10/05 00:46:45;;;;;;;31.52;20.98;;;11.80;59.10;;;;;;5070988;28;20048;-69
2021/10/05 00:49:13;;;;;;;31.05;21.77;;;11.80;59.70;;;;;;5071576;28;20592;-71
2021/10/05 00:51:42;;;;;;;33.30;22.63;;;11.80;59.10;;;;;;5068770;28;20052;-69
2021/10/05 00:54:10;;;;;;;34.05;22.15;;;11.80;59.60;;;;;;5069519;28;20102;-70
2021/10/05 00:56:40;;;;;;;40.60;24.02;;;11.80;59.70;;;;;;5073671;28;20048;-69
2021/10/05 00:59:08;;;;;;;33.67;22.27;;;11.80;60.00;;;;;;5076120;28;20408;-69
2021/10/05 01:01:39;;;;;;;37.50;24.10;;;11.70;60.10;;;;;;5072068;28;20523;-70
2021/10/05 01:04:08;;;;;;;39.35;24.48;;;11.60;60.10;;;;;;5070265;28;20047;-70
2021/10/05 01:06:46;;;;;;;35.22;23.80;;;11.70;60.50;;;;;;5069777;28;20051;-70
2021/10/05 01:09:16;;;;;;;37.03;23.05;;;11.70;60.60;;;;;;5072181;28;20045;-70
2021/10/05 01:11:47;;;;;;;38.15;24.02;;;11.70;60.80;;;;;;5073681;28;20108;-70
2021/10/05 01:14:18;;;;;;;38.15;25.25;;;11.70;61.00;;;;;;5068732;28;20044;-71
2021/10/05 01:16:49;;;;;;;39.97;24.85;;;11.70;61.00;;;;;;5072388;28;20576;-70
2021/10/05 01:19:21;;;;;;;41.35;25.15;;;11.70;61.00;;;;;;5074027;28;20036;-71
2021/10/05 01:21:54;;;;;;;41.35;24.77;;;11.80;61.20;;;;;;5069706;28;20068;-71
2021/10/05 01:24:25;;;;;;;42.22;24.88;;;11.70;61.20;;;;;;5068990;28;20041;-70
2021/10/05 01:26:55;;;;;;;41.00;25.25;;;11.70;61.30;;;;;;5073841;28;20500;-70
2021/10/05 01:29:26;;;;;;;44.97;26.13;;;11.70;61.40;;;;;;5070523;28;20043;-70
2021/10/05 01:31:59;;;;;;;40.28;25.13;;;11.70;61.40;;;;;;5066950;28;20127;-69
2021/10/05 01:34:31;;;;;;;37.15;24.27;;;11.70;61.60;;;;;;5078391;28;20044;-70
2021/10/05 01:37:01;;;;;;;37.88;23.35;;;11.80;61.80;;;;;;5074658;28;20044;-70
2021/10/05 01:39:32;;;;;;;44.47;26.40;;;11.70;61.70;;;;;;5073099;28;20058;-70
2021/10/05 01:42:04;;;;;;;39.78;24.17;;;11.70;61.60;;;;;;5073541;28;20106;-70
2021/10/05 01:44:33;;;;;;;35.35;24.20;;;11.70;61.70;;;;;;5073653;28;20102;-70
2021/10/05 01:47:06;;;;;;;39.88;23.65;;;11.70;61.70;;;;;;5073822;28;20047;-70
2021/10/05 01:49:36;;;;;;;38.08;23.20;;;11.70;61.80;;;;;;5074390;28;20040;-70
2021/10/05 01:52:08;;;;;;;34.00;22.63;;;11.70;61.90;;;;;;5074925;28;20044;-71
2021/10/05 01:54:37;;;;;;;35.80;22.95;;;11.70;61.90;;;;;;5074122;28;20078;-70
2021/10/05 01:57:05;;;;;;;35.95;22.23;;;11.70;62.10;;;;;;5073388;28;20040;-70
2021/10/05 01:59:35;;;;;;;35.17;23.05;;;11.70;62.20;;;;;;5078196;28;20467;-71
2021/10/05 02:02:04;;;;;;;33.55;21.58;;;11.60;62.20;;;;;;5073197;28;20039;-71
2021/10/05 02:04:33;;;;;;;33.58;22.60;;;11.60;62.30;;;;;;5073573;28;20048;-71
2021/10/05 02:07:01;;;;;;;36.55;23.67;;;11.60;62.30;;;;;;5074646;28;20201;-71
2021/10/05 02:09:32;;;;;;;31.02;21.35;;;11.60;62.40;;;;;;5072991;28;20094;-71
2021/10/05 02:12:04;;;;;;;32.67;22.52;;;11.60;62.40;;;;;;5073114;28;20044;-71
2021/10/05 02:14:36;;;;;;;34.88;22.45;;;11.70;62.60;;;;;;5073444;28;20086;-70
2021/10/05 02:17:05;;;;;;;35.33;22.67;;;11.70;62.60;;;;;;5052236;28;20172;-70
2021/10/05 02:19:36;;;;;;;32.70;22.17;;;11.70;62.60;;;;;;5073633;28;20044;-71
2021/10/05 02:22:06;;;;;;;34.20;23.15;;;11.70;62.60;;;;;;5072698;28;20048;-70
2021/10/05 02:24:43;;;;;;;33.55;21.27;;;11.70;62.50;;;;;;5069127;28;20049;-70
2021/10/05 02:27:16;;;;;;;35.97;22.92;;;11.70;62.60;;;;;;5073252;28;20068;-70
2021/10/05 02:29:48;;;;;;;35.33;22.30;;;11.70;62.40;;;;;;5073990;28;20052;-70
2021/10/05 02:32:20;;;;;;;33.40;21.38;;;11.60;62.40;;;;;;5069122;28;20044;-71
2021/10/05 02:34:48;;;;;;;35.80;23.10;;;11.70;62.70;;;;;;5076651;28;20040;-70
2021/10/05 02:37:18;;;;;;;32.90;20.83;;;11.70;62.90;;;;;;5074383;28;20060;-70
2021/10/05 02:39:48;;;;;;;37.05;21.50;;;11.60;62.50;;;;;;5076631;28;20054;-70
2021/10/05 02:42:16;;;;;;;34.78;22.38;;;11.60;62.60;;;;;;5073965;28;21297;-70
2021/10/05 02:44:44;;;;;;;35.28;22.23;;;11.50;62.60;;;;;;5069439;28;20071;-71
2021/10/05 02:47:12;;;;;;;42.20;23.25;;;11.60;62.80;;;;;;5071289;28;20048;-71
2021/10/05 02:49:44;;;;;;;38.60;23.83;;;11.60;62.90;;;;;;5076075;28;20048;-71
2021/10/05 02:52:14;;;;;;;37.63;23.23;;;11.60;63.00;;;;;;5070470;28;20108;-71
2021/10/05 02:54:42;;;;;;;38.80;24.08;;;11.70;63.10;;;;;;5070490;28;20044;-70
2021/10/05 02:57:16;;;;;;;42.97;23.83;;;11.60;63.00;;;;;;5074824;28;20066;-70
2021/10/05 02:59:45;;;;;;;38.17;23.00;;;11.60;63.00;;;;;;5046587;28;20040;-71
2021/10/05 03:02:19;;;;;;;39.13;23.13;;;11.60;63.00;;;;;;5050452;28;20045;-68
2021/10/05 03:04:52;;;;;;;35.70;21.33;;;11.60;63.20;;;;;;5053607;28;20094;-70
2021/10/05 03:07:22;;;;;;;31.40;20.17;;;11.50;63.00;;;;;;5055783;28;20049;-70
2021/10/05 03:09:51;;;;;;;34.60;21.13;;;11.50;63.60;;;;;;5054685;28;20128;-69
2021/10/05 03:12:22;;;;;;;32.55;20.98;;;11.50;63.80;;;;;;5051315;28;20060;-69
2021/10/05 03:14:54;;;;;;;34.08;21.33;;;11.50;63.90;;;;;;5054670;28;20132;-69
2021/10/05 03:17:26;;;;;;;31.85;21.02;;;11.50;64.00;;;;;;5055464;28;20037;-69
2021/10/05 03:19:57;;;;;;;31.92;20.35;;;11.50;64.20;;;;;;5056506;28;20045;-69
2021/10/05 03:22:25;;;;;;;33.10;21.05;;;11.50;64.20;;;;;;5049243;28;20168;-70
2021/10/05 03:24:53;;;;;;;36.83;21.25;;;11.50;64.10;;;;;;5054778;28;20527;-70
2021/10/05 03:27:28;;;;;;;33.97;20.40;;;11.50;64.40;;;;;;5056778;28;20052;-69
2021/10/05 03:29:56;;;;;;;33.22;20.52;;;11.60;64.60;;;;;;5066238;28;20290;-69
2021/10/05 03:32:25;;;;;;;32.08;21.23;;;11.60;64.80;;;;;;5058140;28;20041;-69
2021/10/05 03:34:56;;;;;;;35.88;21.40;;;11.70;64.90;;;;;;5054132;28;20455;-69
2021/10/05 03:37:24;;;;;;;29.30;19.10;;;11.60;65.00;;;;;;5049935;28;20044;-70
2021/10/05 03:39:53;;;;;;;32.88;19.25;;;11.50;64.60;;;;;;5053424;28;20055;-69
2021/10/05 03:42:21;;;;;;;32.85;19.85;;;11.60;64.80;;;;;;5048389;28;20542;-69
2021/10/05 03:44:50;;;;;;;33.38;19.52;;;11.50;64.70;;;;;;5055106;28;20068;-69
2021/10/05 03:47:19;;;;;;;33.85;20.15;;;11.60;64.80;;;;;;5050537;28;20083;-70
2021/10/05 03:49:48;;;;;;;30.83;19.58;;;11.50;64.70;;;;;;5054535;28;20447;-71
2021/10/05 03:52:18;;;;;;;32.90;19.80;;;11.50;64.60;;;;;;5049631;28;20045;-68
2021/10/05 03:54:48;;;;;;;30.55;19.02;;;11.50;64.60;;;;;;5055402;28;20037;-69
2021/10/05 03:57:21;;;;;;;34.42;20.55;;;11.50;64.80;;;;;;5055202;28;20082;-69
2021/10/05 03:59:54;;;;;;;32.95;18.55;;;11.50;64.80;;;;;;5053126;28;20055;-69
2021/10/05 04:02:22;;;;;;;33.35;19.90;;;11.40;64.60;;;;;;5051697;28;20530;-70
2021/10/05 04:04:51;;;;;;;32.53;19.38;;;11.50;64.80;;;;;;5052710;28;20532;-69
2021/10/05 04:07:19;;;;;;;35.33;20.67;;;11.50;64.80;;;;;;5052933;28;20962;-69
2021/10/05 04:09:50;;;;;;;33.88;19.98;;;11.50;64.80;;;;;;5048352;28;20056;-69
2021/10/05 04:12:19;;;;;;;33.42;19.50;;;11.60;65.00;;;;;;5059037;28;20048;-69
2021/10/05 04:14:47;;;;;;;35.88;20.23;;;11.50;65.00;;;;;;5058401;28;20044;-69
2021/10/05 04:17:19;;;;;;;31.90;19.85;;;11.60;65.00;;;;;;5053883;28;20523;-69
2021/10/05 04:19:47;;;;;;;32.10;19.83;;;11.50;65.10;;;;;;5051462;28;20051;-69
2021/10/05 04:22:15;;;;;;;33.10;19.48;;;11.50;65.10;;;;;;5048715;28;20098;-69
2021/10/05 04:24:44;;;;;;;35.25;19.50;;;11.50;65.10;;;;;;5052423;28;20053;-69
2021/10/05 04:27:12;;;;;;;36.28;20.15;;;11.60;65.10;;;;;;5054202;28;20037;-70
2021/10/05 04:29:45;;;;;;;33.45;19.02;;;11.50;65.10;;;;;;5054386;28;20045;-70
2021/10/05 04:32:20;;;;;;;37.22;21.25;;;11.60;66.00;;;;;;5054090;28;20099;-69
2021/10/05 04:34:50;;;;;;;32.75;18.52;;;11.60;65.20;;;;;;5055925;28;20045;-70
2021/10/05 04:37:21;;;;;;;39.50;20.23;;;11.60;65.30;;;;;;5052771;28;20040;-68
2021/10/05 04:39:49;;;;;;;36.28;20.85;;;11.60;65.40;;;;;;5050508;28;23875;-69
2021/10/05 04:42:19;;;;;;;33.03;19.55;;;11.60;65.30;;;;;;5068765;28;20045;-70
2021/10/05 04:44:49;;;;;;;37.47;21.27;;;11.60;65.40;;;;;;5053515;28;20127;-70
2021/10/05 04:47:17;;;;;;;34.60;19.70;;;11.60;65.40;;;;;;5052657;28;20064;-70
2021/10/05 04:49:50;;;;;;;37.30;19.48;;;11.60;65.30;;;;;;5048194;28;20076;-70
2021/10/05 04:52:19;;;;;;;36.65;20.38;;;11.60;65.30;;;;;;5051717;28;20060;-69
2021/10/05 04:54:47;;;;;;;33.97;19.25;;;11.50;65.20;;;;;;5053843;28;20044;-70
2021/10/05 04:57:15;;;;;;;38.45;20.02;;;11.50;65.20;;;;;;5035832;28;20119;-70
2021/10/05 04:59:46;;;;;;;36.10;20.90;;;11.50;65.30;;;;;;5053354;28;20212;-71
2021/10/05 05:02:14;;;;;;;35.00;18.83;;;11.50;65.30;;;;;;5047605;28;20728;-70
2021/10/05 05:04:42;;;;;;;34.75;19.60;;;11.50;65.30;;;;;;5055751;28;20053;-70
2021/10/05 05:07:12;;;;;;;35.92;20.35;;;11.50;65.30;;;;;;5051270;28;20136;-70
2021/10/05 05:09:43;;;;;;;33.83;18.83;;;11.60;65.40;;;;;;5036572;28;20083;-70
2021/10/05 05:12:11;;;;;;;32.67;19.38;;;11.60;65.50;;;;;;5051129;28;20128;-70
2021/10/05 05:14:39;;;;;;;32.90;19.75;;;11.50;65.30;;;;;;5057588;28;20523;-70
2021/10/05 05:17:09;;;;;;;31.98;18.48;;;11.50;65.30;;;;;;5054967;28;20087;-69
2021/10/05 05:19:37;;;;;;;35.83;19.75;;;11.50;65.40;;;;;;5056662;28;20110;-69
2021/10/05 05:22:07;;;;;;;38.13;19.63;;;11.50;65.40;;;;;;5052444;28;20041;-70
2021/10/05 05:24:36;;;;;;;38.13;20.73;;;11.50;65.30;;;;;;5061881;28;20044;-70
2021/10/05 05:27:07;;;;;;;37.85;20.13;;;11.50;65.40;;;;;;5053293;28;20057;-70
2021/10/05 05:29:36;;;;;;;35.35;20.27;;;11.50;65.20;;;;;;5056333;28;20475;-71
2021/10/05 05:32:04;;;;;;;38.20;20.38;;;11.40;65.30;;;;;;5054126;28;20144;-71
2021/10/05 05:34:34;;;;;;;35.88;19.63;;;11.50;65.30;;;;;;5054323;28;20085;-70
2021/10/05 05:37:06;;;;;;;37.97;20.20;;;11.50;65.40;;;;;;5055538;28;20135;-71
2021/10/05 05:39:40;;;;;;;37.95;20.17;;;11.50;65.40;;;;;;5060307;28;20492;-70
2021/10/05 05:42:10;;;;;;;37.38;19.75;;;11.50;65.40;;;;;;5055035;28;20037;-70
2021/10/05 05:44:42;;;;;;;38.40;19.98;;;11.60;65.60;;;;;;5040908;28;20395;-70
2021/10/05 05:47:12;;;;;;;35.28;18.63;;;11.60;65.70;;;;;;5062045;28;20055;-71
2021/10/05 05:49:45;;;;;;;37.13;20.33;;;11.60;65.60;;;;;;5074517;28;20048;-71
2021/10/05 05:52:13;;;;;;;48.70;20.55;;;11.70;65.60;;;;;;5074188;28;20040;-69
2021/10/05 05:54:43;;;;;;;39.08;20.25;;;11.60;65.80;;;;;;5070996;28;20382;-71
2021/10/05 05:57:13;;;;;;;42.22;20.38;;;11.60;65.70;;;;;;5070452;28;20040;-69
2021/10/05 05:59:41;;;;;;;37.22;19.90;;;11.60;65.90;;;;;;5069233;28;20055;-70
2021/10/05 06:02:09;;;;;;;40.85;21.08;;;11.60;65.60;;;;;;5069362;28;20076;-70
2021/10/05 06:04:38;;;;;;;42.67;19.98;;;11.70;65.70;;;;;;5070440;28;20052;-70
2021/10/05 06:07:11;;;;;;;39.60;21.95;;;11.70;65.70;;;;;;5056806;28;20051;-71
2021/10/05 06:09:43;;;;;;;41.63;20.85;;;11.70;65.70;;;;;;5076130;28;20630;-71
2021/10/05 06:12:16;;;;;;;32.22;18.40;;;11.80;65.80;;;;;;5073260;28;20097;-70
2021/10/05 06:14:44;;;;;;;38.28;19.40;;;11.70;65.20;;;;;;5074066;28;20040;-70
2021/10/05 06:17:12;;;;;;;35.72;18.90;;;11.70;65.30;;;;;;5072725;28;20068;-71
2021/10/05 06:19:40;;;;;;;38.70;20.25;;;11.70;65.30;;;;;;5074926;28;20106;-70
2021/10/05 06:22:10;;;;;;;40.47;19.25;;;11.70;64.70;;;;;;5071256;28;20143;-71
2021/10/05 06:24:38;;;;;;;39.83;19.73;;;11.70;64.70;;;;;;5078696;28;20048;-71
2021/10/05 06:27:07;;;;;;;37.28;19.23;;;11.80;65.00;;;;;;5075256;28;20080;-71
2021/10/05 06:29:36;;;;;;;32.85;17.27;;;11.90;65.10;;;;;;5072874;28;20079;-70
2021/10/05 06:32:07;;;;;;;32.95;17.35;;;11.80;63.20;;;;;;5069197;28;20128;-71
2021/10/05 06:34:35;;;;;;;30.35;16.15;;;11.70;63.10;;;;;;5073858;28;20124;-71
2021/10/05 06:37:03;;;;;;;33.42;17.92;;;11.80;63.20;;;;;;5072087;28;20060;-70
2021/10/05 06:39:33;;;;;;;30.90;16.60;;;11.90;63.40;;;;;;5074604;28;20504;-71
2021/10/05 06:42:04;;;;;;;32.53;18.05;;;11.90;63.40;;;;;;5073544;28;20085;-69
2021/10/05 06:44:34;;;;;;;35.10;19.17;;;12.10;64.10;;;;;;5071860;28;20714;-70
2021/10/05 06:47:03;;;;;;;33.20;17.77;;;12.10;63.30;;;;;;5059677;28;20048;-72
2021/10/05 06:49:33;;;;;;;35.00;18.10;;;12.20;63.00;;;;;;5075018;28;20051;-70
2021/10/05 06:52:06;;;;;;;35.13;18.05;;;12.20;62.70;;;;;;5073165;28;20074;-70
2021/10/05 06:54:34;;;;;;;31.50;17.58;;;12.30;62.70;;;;;;5057928;28;20044;-70
2021/10/05 06:57:07;;;;;;;28.83;16.27;;;12.30;62.40;;;;;;5057925;28;20075;-70
2021/10/05 06:59:40;;;;;;;28.38;16.70;;;12.30;61.80;;;;;;5053428;28;20052;-70
2021/10/05 07:02:08;;;;;;;31.50;16.52;;;12.20;61.00;;;;;;5052647;28;20049;-71
2021/10/05 07:04:37;;;;;;;31.42;17.15;;;12.20;60.30;;;;;;5053642;28;20049;-71
2021/10/05 07:07:07;;;;;;;26.52;15.35;;;12.30;61.00;;;;;;5054259;28;20056;-70
2021/10/05 07:09:35;;;;;;;26.35;15.52;;;12.20;59.40;;;;;;5052001;28;20064;-70
2021/10/05 07:12:03;;;;;;;28.63;15.43;;;12.20;60.00;;;;;;5053963;28;20045;-72
2021/10/05 07:14:31;;;;;;;27.63;16.55;;;12.30;60.40;;;;;;5061906;28;20055;-71
2021/10/05 07:17:06;;;;;;;26.23;15.65;;;12.30;59.50;;;;;;5075149;28;20064;-71
2021/10/05 07:19:50;;;;;;;26.83;14.85;;;12.50;59.80;;;;;;5073945;28;20132;-72
2021/10/05 07:22:19;;;;;;;29.08;14.60;;;12.50;59.70;;;;;;5070509;28;20044;-72
2021/10/05 07:24:47;;;;;;;21.38;13.80;;;12.50;59.60;;;;;;5070289;28;20246;-71
2021/10/05 07:27:16;;;;;;;25.08;15.30;;;12.50;57.70;;;;;;5072738;28;20127;-71
2021/10/05 07:29:44;;;;;;;25.65;15.25;;;12.70;58.30;;;;;;5074147;28;20597;-71
2021/10/05 07:32:14;;;;;;;27.42;15.45;;;12.70;57.70;;;;;;5072045;28;20054;-71
2021/10/05 07:34:43;;;;;;;23.83;14.63;;;12.70;57.50;;;;;;5070180;28;20067;-71
2021/10/05 07:37:11;;;;;;;23.83;14.45;;;12.60;55.90;;;;;;5071663;28;20051;-71
2021/10/05 07:39:40;;;;;;;25.13;14.85;;;12.70;57.60;;;;;;5075635;28;20043;-70
2021/10/05 07:42:13;;;;;;;24.00;15.07;;;12.70;56.50;;;;;;5050161;28;20048;-71
2021/10/05 07:44:43;;;;;;;25.38;14.45;;;12.80;56.80;;;;;;5051627;28;20032;-71
2021/10/05 07:47:15;;;;;;;22.52;14.15;;;12.80;56.60;;;;;;5055791;28;20125;-71
2021/10/05 07:49:46;;;;;;;22.25;13.73;;;12.80;56.00;;;;;;5051146;28;20048;-72
2021/10/05 07:52:14;;;;;;;24.02;13.32;;;12.90;55.40;;;;;;5051902;28;20516;-71
2021/10/05 07:54:45;;;;;;;20.77;13.05;;;13.00;55.30;;;;;;5053687;28;20033;-71
2021/10/05 07:57:13;;;;;;;20.67;12.40;;;13.10;55.00;;;;;;5054417;28;20047;-71
2021/10/05 07:59:41;;;;;;;19.50;11.88;;;13.20;54.70;;;;;;5054941;28;20409;-70
2021/10/05 08:02:12;;;;;;;20.50;12.50;;;13.10;52.20;;;;;;5048950;28;20602;-70
2021/10/05 08:04:44;;;;;;;16.27;11.25;;;13.00;50.50;;;;;;5053167;28;20041;-70
2021/10/05 08:07:12;;;;;;;17.48;12.02;;;13.10;51.20;;;;;;5038247;28;20135;-71
2021/10/05 08:09:41;;;;;;;18.35;11.77;;;13.30;52.40;;;;;;5061291;28;20433;-70
2021/10/05 08:12:09;;;;;;;18.80;12.10;;;13.30;51.50;;;;;;5050437;28;20040;-71
2021/10/05 08:14:42;;;;;;;16.77;10.68;;;13.30;50.90;;;;;;5047168;28;20116;-71
2021/10/05 08:17:13;;;;;;;15.52;10.60;;;13.20;48.20;;;;;;5048759;28;20045;-71
2021/10/05 08:19:47;;;;;;;14.32;10.07;;;13.20;48.80;;;;;;5051722;28;20190;-70
2021/10/05 08:22:19;;;;;;;14.52;10.85;;;13.30;48.60;;;;;;5049515;28;20053;-71
2021/10/05 08:24:47;;;;;;;14.45;10.13;;;13.40;47.10;;;;;;5050845;28;20487;-71
2021/10/05 08:27:15;;;;;;;18.15;10.85;;;13.50;47.00;;;;;;5051561;28;20727;-71
2021/10/05 08:29:45;;;;;;;16.67;10.55;;;13.50;49.20;;;;;;5051686;28;20357;-71
2021/10/05 08:32:20;;;;;;;14.55;9.52;;;13.70;49.10;;;;;;5051120;28;20084;-71
2021/10/05 08:34:49;;;;;;;11.88;9.05;;;13.70;47.10;;;;;;5049940;28;20127;-71
2021/10/05 08:37:18;;;;;;;11.65;8.50;;;13.90;46.20;;;;;;5055158;28;20044;-70
2021/10/05 08:39:46;;;;;;;12.20;8.73;;;13.90;43.20;;;;;;5055836;28;20523;-71
2021/10/05 08:42:15;;;;;;;12.07;7.88;;;13.90;46.00;;;;;;5051494;28;20193;-71
2021/10/05 08:44:45;;;;;;;11.32;7.03;;;14.00;43.60;;;;;;5054055;28;20053;-72
2021/10/05 08:47:13;;;;;;;10.15;7.45;;;14.00;41.40;;;;;;5060565;28;20048;-72
2021/10/05 08:49:48;;;;;;;11.25;7.57;;;14.10;41.10;;;;;;5053318;28;20041;-72
2021/10/05 08:52:21;;;;;;;9.85;6.70;;;14.10;40.60;;;;;;5050180;28;20493;-72
2021/10/05 08:54:49;;;;;;;8.20;6.38;;;14.10;38.60;;;;;;5054990;28;20045;-71
2021/10/05 08:57:29;;;;;;;8.27;6.30;;;14.00;40.60;;;;;;5056778;28;20040;-71
2021/10/05 08:59:58;;;;;;;10.15;6.65;;;14.10;40.70;;;;;;5054649;28;20053;-71
2021/10/05 09:02:51;;;;;;;8.60;7.10;;;14.00;38.10;;;;;;5053854;28;20522;-71
2021/10/05 09:05:27;;;;;;;7.73;5.80;;;14.20;39.20;;;;;;5052949;28;20078;-71
2021/10/05 09:07:58;;;;;;;14.25;7.28;;;14.20;37.40;;;;;;5059532;28;20052;-71
2021/10/05 09:10:33;;;;;;;9.75;6.47;;;14.10;38.40;;;;;;5057157;28;20042;-71
2021/10/05 09:13:02;;;;;;;10.57;7.47;;;14.10;37.00;;;;;;5048798;28;20051;-71
2021/10/05 09:15:32;;;;;;;14.75;7.53;;;14.10;38.40;;;;;;5055333;28;20543;-71
2021/10/05 09:18:04;;;;;;;13.27;7.55;;;14.10;38.00;;;;;;5057919;28;20051;-71
2021/10/05 09:20:36;;;;;;;8.25;5.95;;;14.10;39.50;;;;;;5061389;28;20035;-71
2021/10/05 09:23:06;;;;;;;10.30;6.97;;;14.10;38.80;;;;;;5068364;28;20048;-70
2021/10/05 09:25:36;;;;;;;9.13;6.15;;;14.00;37.60;;;;;;5072570;28;20087;-70
2021/10/05 09:28:20;;;;;;;9.63;6.50;;;13.90;38.70;;;;;;5074229;28;20110;-70
2021/10/05 09:31:04;;;;;;;9.27;6.72;;;13.90;38.90;;;;;;5075485;28;20570;-71
2021/10/05 09:33:36;;;;;;;10.52;7.00;;;14.00;40.60;;;;;;5064748;28;20041;-70
2021/10/05 09:36:09;;;;;;;11.57;6.60;;;14.00;41.20;;;;;;5070260;28;20052;-71
2021/10/05 09:38:37;;;;;;;9.05;6.60;;;14.10;40.00;;;;;;5076220;28;20815;-71
2021/10/05 09:41:09;;;;;;;9.90;6.65;;;14.00;36.70;;;;;;5071102;28;20315;-71
2021/10/05 09:43:42;;;;;;;9.35;6.97;;;14.10;37.60;;;;;;5068515;28;20272;-71
2021/10/05 09:46:12;;;;;;;11.93;7.00;;;14.20;38.00;;;;;;5078194;28;20105;-71
2021/10/05 09:48:44;;;;;;;15.30;6.45;;;14.30;37.10;;;;;;5074218;28;20040;-71
2021/10/05 09:51:21;;;;;;;9.73;6.95;;;14.60;35.10;;;;;;5076551;28;20088;-71
2021/10/05 09:53:53;;;;;;;8.75;5.97;;;14.80;34.40;;;;;;5068044;28;20037;-71
2021/10/05 09:56:26;;;;;;;7.88;5.43;;;14.80;31.90;;;;;;5074476;28;20137;-70
2021/10/05 09:58:59;;;;;;;8.50;5.13;;;14.60;32.10;;;;;;5063400;28;20043;-71
2021/10/05 10:01:28;;;;;;;6.00;4.50;;;14.70;30.30;;;;;;5073861;28;20044;-71
2021/10/05 10:03:58;;;;;;;6.22;4.90;;;14.80;30.40;;;;;;5056450;28;20181;-72
2021/10/05 10:06:28;;;;;;;7.57;4.30;;;14.90;28.90;;;;;;5073855;28;20040;-71
2021/10/05 10:08:57;;;;;;;5.90;4.55;;;15.00;26.30;;;;;;5073681;28;20136;-71
2021/10/05 10:11:29;;;;;;;6.22;4.15;;;15.30;25.70;;;;;;5072808;28;20098;-71
2021/10/05 10:13:59;;;;;;;5.85;3.80;;;15.00;22.00;;;;;;5071010;28;20095;-71
2021/10/05 10:16:34;;;;;;;6.47;4.13;;;15.10;27.00;;;;;;5073590;28;20040;-70
2021/10/05 10:19:04;;;;;;;5.25;4.03;;;15.10;23.50;;;;;;5072878;28;20594;-71
2021/10/05 10:21:38;;;;;;;8.43;4.13;;;15.30;23.00;;;;;;5072505;28;20044;-70
2021/10/05 10:24:11;;;;;;;5.18;4.20;;;15.30;20.10;;;;;;5069567;28;20556;-72
2021/10/05 10:26:45;;;;;;;5.38;4.10;;;15.40;20.70;;;;;;5077510;28;20036;-71
2021/10/05 10:29:33;;;;;;;5.60;3.90;;;15.30;23.00;;;;;;5070869;28;20047;-70
2021/10/05 10:32:12;;;;;;;5.10;3.70;;;15.40;21.10;;;;;;5073723;28;20044;-69
2021/10/05 10:34:43;;;;;;;4.68;3.72;;;15.20;20.50;;;;;;5072621;28;20032;-69
2021/10/05 10:37:17;;;;;;;5.33;3.30;;;15.30;20.30;;;;;;5073559;28;20530;-70
2021/10/05 10:39:47;;;;;;;4.95;3.40;;;15.10;21.50;;;;;;5073366;28;20493;-70
2021/10/05 10:42:28;;;;;;;5.60;3.53;;;15.10;21.40;;;;;;5060888;28;20711;-71
2021/10/05 10:44:57;;;;;;;8.20;5.07;;;15.20;22.20;;;;;;5072030;28;20131;-71
2021/10/05 10:47:27;;;;;;;7.15;4.50;;;15.20;24.30;;;;;;5073072;28;20075;-70
2021/10/05 10:49:58;;;;;;;5.93;4.57;;;15.10;24.20;;;;;;5074854;28;20384;-70
2021/10/05 10:52:32;;;;;;;;;;;15.10;25.50;;;;;;5065979;28;20040;-69
2021/10/05 10:55:01;;;;;;;5.95;4.00;;;15.10;27.50;;;;;;5071575;28;19970;-71
2021/10/05 10:57:34;;;;;;;4.97;3.70;;;15.40;28.60;;;;;;5071870;28;20590;-71
2021/10/05 11:00:16;;;;;;;3.72;2.83;;;15.40;24.30;;;;;;5074362;28;20056;-71
2021/10/05 11:02:47;;;;;;;4.40;3.45;;;15.20;26.20;;;;;;5068421;28;20049;-70
2021/10/05 11:05:21;;;;;;;5.28;3.40;;;15.30;27.10;;;;;;5068722;28;20044;-70
2021/10/05 11:07:55;;;;;;;6.93;4.00;;;15.30;26.30;;;;;;5071750;28;20044;-69
2021/10/05 11:10:25;;;;;;;4.18;3.67;;;15.40;26.60;;;;;;5071012;28;20408;-71
2021/10/05 11:12:56;;;;;;;5.20;3.80;;;15.60;27.00;;;;;;5067646;28;20066;-71
2021/10/05 11:15:36;;;;;;;4.70;3.55;;;15.50;25.80;;;;;;5071519;28;20039;-71
2021/10/05 11:18:09;;;;;;;4.38;3.10;;;15.60;27.40;;;;;;5070036;28;20048;-70
2021/10/05 11:20:44;;;;;;;3.80;2.78;;;15.60;25.00;;;;;;5055054;28;20032;-71
2021/10/05 11:23:20;;;;;;;4.70;2.97;;;15.90;24.10;;;;;;5066194;28;20036;-70
2021/10/05 11:25:49;;;;;;;3.90;2.97;;;15.90;23.80;;;;;;5073456;28;20041;-71
2021/10/05 11:28:21;;;;;;;7.55;3.15;;;15.90;23.20;;;;;;5072497;28;20040;-71
2021/10/05 11:30:54;;;;;;;;;;;15.70;21.90;;;;;;5071340;28;20355;-70
2021/10/05 11:33:29;;;;;;;3.10;2.80;;;15.70;23.80;;;;;;5065927;28;19920;-71
2021/10/05 11:36:11;;;;;;;7.32;2.92;;;15.90;25.20;;;;;;5062434;28;20048;-69
2021/10/05 11:38:47;;;;;;;3.92;3.17;;;16.00;22.70;;;;;;5051601;28;20044;-70
2021/10/05 11:41:18;;;;;;;2.22;2.03;;;16.00;23.40;;;;;;5053956;28;20049;-69
2021/10/05 11:43:48;;;;;;;2.63;2.22;;;15.90;22.80;;;;;;5044264;28;20079;-71
2021/10/05 11:46:21;;;;;;;3.10;2.42;;;16.00;18.40;;;;;;5050214;28;20171;-70
2021/10/05 11:48:50;;;;;;;3.88;2.40;;;16.10;19.20;;;;;;5050140;28;20691;-70
2021/10/05 11:51:20;;;;;;;2.72;1.92;;;16.00;18.50;;;;;;5059273;28;20500;-71
2021/10/05 11:53:52;;;;;;;3.88;2.10;;;16.00;19.10;;;;;;5045284;28;20047;-71
2021/10/05 11:56:24;;;;;;;2.53;2.20;;;15.80;20.20;;;;;;5064494;28;20407;-71
2021/10/05 11:58:54;;;;;;;2.00;1.80;;;16.00;20.20;;;;;;5070617;28;20069;-71
2021/10/05 12:01:27;;;;;;;3.63;2.00;;;16.10;20.00;;;;;;5052137;28;20060;-72
2021/10/05 12:04:05;;;;;;;2.33;1.70;;;16.10;19.20;;;;;;5044001;28;20048;-70
2021/10/05 12:06:38;;;;;;;1.77;1.48;;;16.00;19.10;;;;;;5054403;28;20049;-71
2021/10/05 12:09:18;;;;;;;3.80;1.80;;;16.10;18.40;;;;;;5047613;28;20072;-71
2021/10/05 12:11:48;;;;;;;3.38;1.80;;;16.20;18.30;;;;;;5055842;28;20051;-71
2021/10/05 12:14:18;;;;;;;2.25;1.55;;;16.20;17.70;;;;;;5048449;28;20044;-71
2021/10/05 12:17:03;;;;;;;1.83;1.60;;;16.10;17.80;;;;;;5054615;28;20148;-70
2021/10/05 12:19:34;;;;;;;2.70;1.17;;;16.20;15.80;;;;;;5051660;28;20433;-71
2021/10/05 12:22:04;;;;;;;2.88;1.50;;;16.30;15.90;;;;;;5052861;28;20033;-70
2021/10/05 12:24:42;;;;;;;1.52;1.40;;;16.60;16.40;;;;;;5048126;28;20040;-70
2021/10/05 12:27:14;;;;;;;1.80;1.20;;;16.50;13.20;;;;;;5054346;28;20419;-69
2021/10/05 12:29:48;;;;;;;1.80;1.10;;;16.50;14.10;;;;;;5035228;28;20063;-72
2021/10/05 12:32:16;;;;;;;1.65;1.30;;;16.70;14.00;;;;;;5043410;28;20044;-71
2021/10/05 12:34:50;;;;;;;3.88;1.60;;;16.80;10.10;;;;;;5071031;28;20125;-70
2021/10/05 12:37:20;;;;;;;1.20;0.90;;;16.80;12.10;;;;;;5070755;28;20475;-72
2021/10/05 12:40:05;;;;;;;1.60;0.93;;;16.50;11.00;;;;;;5067622;28;20136;-69
2021/10/05 12:42:42;;;;;;;2.42;1.00;;;16.60;11.50;;;;;;5045967;28;20068;-70
2021/10/05 12:45:17;;;;;;;1.25;1.00;;;16.80;10.30;;;;;;5059166;28;20119;-70
2021/10/05 12:47:58;;;;;;;2.35;1.17;;;17.10;8.90;;;;;;5072455;28;20339;-70
2021/10/05 12:50:31;;;;;;;2.75;0.90;;;16.90;8.80;;;;;;5050136;28;20043;-70
2021/10/05 12:53:05;;;;;;;1.95;0.93;;;16.80;8.70;;;;;;5066103;28;20048;-70